sensor_id;sensor_type;location;lat;lon;timestamp;P1;durP1;ratioP1;P2;durP2;ratioP2
3447;SDS011;1738;49.500;17.736;2023-04-03T00:02:11;11.20;;;5.90;;
3447;SDS011;1738;49.500;17.736;2023-04-03T00:04:37;6.10;;;4.43;;
3447;SDS011;1738;49.500;17.736;2023-04-03T00:07:02;10.20;;;6.40;;
3447;SDS011;1738;49.500;17.736;2023-04-03T00:09:28;6.50;;;5.10;;
3447;SDS011;1738;49.500;17.736;2023-04-03T00:11:54;5.67;;;4.63;;
3447;SDS011;1738;49.500;17.736;2023-04-03T00:14:20;6.03;;;3.63;;
3447;SDS011;1738;49.500;17.736;2023-04-03T00:16:46;4.40;;;3.00;;
3447;SDS011;1738;49.500;17.736;2023-04-03T00:19:12;8.73;;;5.47;;
3447;SDS011;1738;49.500;17.736;2023-04-03T00:21:38;7.30;;;5.53;;
3447;SDS011;1738;49.500;17.736;2023-04-03T00:24:03;6.27;;;4.33;;
3447;SDS011;1738;49.500;17.736;2023-04-03T00:26:30;7.15;;;5.15;;
3447;SDS011;1738;49.500;17.736;2023-04-03T00:28:55;11.43;;;4.37;;
3447;SDS011;1738;49.500;17.736;2023-04-03T00:31:21;7.10;;;5.70;;
3447;SDS011;1738;49.500;17.736;2023-04-03T00:33:47;9.60;;;5.37;;
3447;SDS011;1738;49.500;17.736;2023-04-03T00:36:13;7.83;;;5.40;;
3447;SDS011;1738;49.500;17.736;2023-04-03T00:38:39;4.50;;;3.40;;
3447;SDS011;1738;49.500;17.736;2023-04-03T00:41:05;5.70;;;4.00;;
3447;SDS011;1738;49.500;17.736;2023-04-03T00:43:30;6.83;;;4.30;;
3447;SDS011;1738;49.500;17.736;2023-04-03T00:45:57;7.63;;;5.27;;
3447;SDS011;1738;49.500;17.736;2023-04-03T00:48:24;7.30;;;4.27;;
3447;SDS011;1738;49.500;17.736;2023-04-03T00:50:48;5.40;;;3.23;;
3447;SDS011;1738;49.500;17.736;2023-04-03T00:53:16;7.47;;;3.37;;
3447;SDS011;1738;49.500;17.736;2023-04-03T00:55:40;7.97;;;5.63;;
3447;SDS011;1738;49.500;17.736;2023-04-03T00:58:06;6.50;;;5.20;;
3447;SDS011;1738;49.500;17.736;2023-04-03T01:00:31;11.13;;;5.53;;
3447;SDS011;1738;49.500;17.736;2023-04-03T01:02:57;14.43;;;6.77;;
3447;SDS011;1738;49.500;17.736;2023-04-03T01:05:23;7.50;;;5.67;;
3447;SDS011;1738;49.500;17.736;2023-04-03T01:07:49;11.37;;;7.77;;
3447;SDS011;1738;49.500;17.736;2023-04-03T01:10:15;6.93;;;4.90;;
3447;SDS011;1738;49.500;17.736;2023-04-03T01:12:42;8.00;;;6.13;;
3447;SDS011;1738;49.500;17.736;2023-04-03T01:15:09;12.87;;;9.00;;
3447;SDS011;1738;49.500;17.736;2023-04-03T01:17:36;10.90;;;7.70;;
3447;SDS011;1738;49.500;17.736;2023-04-03T01:20:42;12.53;;;8.13;;
3447;SDS011;1738;49.500;17.736;2023-04-03T01:22:54;16.43;;;8.23;;
3447;SDS011;1738;49.500;17.736;2023-04-03T01:25:16;14.10;;;8.40;;
3447;SDS011;1738;49.500;17.736;2023-04-03T01:27:42;7.60;;;4.67;;
3447;SDS011;1738;49.500;17.736;2023-04-03T01:30:08;10.63;;;7.97;;
3447;SDS011;1738;49.500;17.736;2023-04-03T01:32:34;9.77;;;4.27;;
3447;SDS011;1738;49.500;17.736;2023-04-03T01:35:00;8.77;;;6.30;;
3447;SDS011;1738;49.500;17.736;2023-04-03T01:37:26;10.37;;;7.40;;
3447;SDS011;1738;49.500;17.736;2023-04-03T01:39:52;9.65;;;5.93;;
3447;SDS011;1738;49.500;17.736;2023-04-03T01:42:18;16.43;;;5.00;;
3447;SDS011;1738;49.500;17.736;2023-04-03T01:44:44;5.90;;;5.03;;
3447;SDS011;1738;49.500;17.736;2023-04-03T01:47:09;11.57;;;6.70;;
3447;SDS011;1738;49.500;17.736;2023-04-03T01:49:35;13.70;;;8.27;;
3447;SDS011;1738;49.500;17.736;2023-04-03T01:52:01;10.20;;;6.97;;
3447;SDS011;1738;49.500;17.736;2023-04-03T01:54:27;12.30;;;8.53;;
3447;SDS011;1738;49.500;17.736;2023-04-03T01:56:53;6.80;;;4.90;;
3447;SDS011;1738;49.500;17.736;2023-04-03T01:59:19;7.60;;;5.23;;
3447;SDS011;1738;49.500;17.736;2023-04-03T02:01:44;9.37;;;6.17;;
3447;SDS011;1738;49.500;17.736;2023-04-03T02:04:11;9.47;;;6.20;;
3447;SDS011;1738;49.500;17.736;2023-04-03T02:06:36;13.30;;;7.77;;
3447;SDS011;1738;49.500;17.736;2023-04-03T02:09:02;12.00;;;7.57;;
3447;SDS011;1738;49.500;17.736;2023-04-03T02:11:28;8.93;;;5.67;;
3447;SDS011;1738;49.500;17.736;2023-04-03T02:13:54;11.23;;;6.50;;
3447;SDS011;1738;49.500;17.736;2023-04-03T02:16:20;5.27;;;4.33;;
3447;SDS011;1738;49.500;17.736;2023-04-03T02:18:45;10.20;;;6.27;;
3447;SDS011;1738;49.500;17.736;2023-04-03T02:21:11;6.47;;;5.50;;
3447;SDS011;1738;49.500;17.736;2023-04-03T02:23:37;6.97;;;4.63;;
3447;SDS011;1738;49.500;17.736;2023-04-03T02:26:04;6.83;;;4.53;;
3447;SDS011;1738;49.500;17.736;2023-04-03T02:28:29;8.40;;;5.80;;
3447;SDS011;1738;49.500;17.736;2023-04-03T02:30:55;7.67;;;6.87;;
3447;SDS011;1738;49.500;17.736;2023-04-03T02:33:20;7.10;;;5.70;;
3447;SDS011;1738;49.500;17.736;2023-04-03T02:35:46;11.93;;;6.30;;
3447;SDS011;1738;49.500;17.736;2023-04-03T02:38:12;10.40;;;7.00;;
3447;SDS011;1738;49.500;17.736;2023-04-03T02:40:38;8.33;;;5.60;;
3447;SDS011;1738;49.500;17.736;2023-04-03T02:43:04;8.50;;;5.63;;
3447;SDS011;1738;49.500;17.736;2023-04-03T02:45:30;4.07;;;3.67;;
3447;SDS011;1738;49.500;17.736;2023-04-03T02:47:56;11.73;;;6.93;;
3447;SDS011;1738;49.500;17.736;2023-04-03T02:50:21;10.40;;;4.70;;
3447;SDS011;1738;49.500;17.736;2023-04-03T02:52:47;8.50;;;6.83;;
3447;SDS011;1738;49.500;17.736;2023-04-03T02:55:14;10.17;;;7.27;;
3447;SDS011;1738;49.500;17.736;2023-04-03T02:57:39;7.67;;;6.20;;
3447;SDS011;1738;49.500;17.736;2023-04-03T03:00:05;6.70;;;4.53;;
3447;SDS011;1738;49.500;17.736;2023-04-03T03:02:31;8.03;;;5.60;;
3447;SDS011;1738;49.500;17.736;2023-04-03T03:04:57;9.30;;;6.50;;
3447;SDS011;1738;49.500;17.736;2023-04-03T03:07:23;12.40;;;7.53;;
3447;SDS011;1738;49.500;17.736;2023-04-03T03:09:49;12.00;;;7.70;;
3447;SDS011;1738;49.500;17.736;2023-04-03T03:12:15;9.73;;;5.63;;
3447;SDS011;1738;49.500;17.736;2023-04-03T03:14:41;12.23;;;7.83;;
3447;SDS011;1738;49.500;17.736;2023-04-03T03:17:06;12.33;;;7.60;;
3447;SDS011;1738;49.500;17.736;2023-04-03T03:19:33;7.72;;;5.93;;
3447;SDS011;1738;49.500;17.736;2023-04-03T03:21:59;10.00;;;7.00;;
3447;SDS011;1738;49.500;17.736;2023-04-03T03:24:25;14.83;;;9.70;;
3447;SDS011;1738;49.500;17.736;2023-04-03T03:26:50;10.83;;;6.40;;
3447;SDS011;1738;49.500;17.736;2023-04-03T03:29:16;13.27;;;7.03;;
3447;SDS011;1738;49.500;17.736;2023-04-03T03:31:42;11.50;;;5.60;;
3447;SDS011;1738;49.500;17.736;2023-04-03T03:34:08;10.40;;;8.13;;
3447;SDS011;1738;49.500;17.736;2023-04-03T03:36:34;13.20;;;7.70;;
3447;SDS011;1738;49.500;17.736;2023-04-03T03:39:00;7.07;;;5.82;;
3447;SDS011;1738;49.500;17.736;2023-04-03T03:41:25;7.60;;;5.57;;
3447;SDS011;1738;49.500;17.736;2023-04-03T03:43:51;9.70;;;6.47;;
3447;SDS011;1738;49.500;17.736;2023-04-03T03:46:17;9.60;;;6.60;;
3447;SDS011;1738;49.500;17.736;2023-04-03T03:48:43;9.57;;;6.37;;
3447;SDS011;1738;49.500;17.736;2023-04-03T03:51:09;14.10;;;9.37;;
3447;SDS011;1738;49.500;17.736;2023-04-03T03:53:36;8.40;;;7.33;;
3447;SDS011;1738;49.500;17.736;2023-04-03T03:56:02;12.93;;;7.93;;
3447;SDS011;1738;49.500;17.736;2023-04-03T03:58:28;12.10;;;7.13;;
3447;SDS011;1738;49.500;17.736;2023-04-03T04:00:54;12.27;;;5.97;;
3447;SDS011;1738;49.500;17.736;2023-04-03T04:03:20;8.27;;;7.00;;
3447;SDS011;1738;49.500;17.736;2023-04-03T04:05:46;12.87;;;8.40;;
3447;SDS011;1738;49.500;17.736;2023-04-03T04:08:11;6.60;;;4.53;;
3447;SDS011;1738;49.500;17.736;2023-04-03T04:10:37;10.03;;;6.00;;
3447;SDS011;1738;49.500;17.736;2023-04-03T04:13:03;8.03;;;6.70;;
3447;SDS011;1738;49.500;17.736;2023-04-03T04:15:29;7.93;;;5.90;;
3447;SDS011;1738;49.500;17.736;2023-04-03T04:17:55;12.03;;;7.83;;
3447;SDS011;1738;49.500;17.736;2023-04-03T04:20:21;13.63;;;7.67;;
3447;SDS011;1738;49.500;17.736;2023-04-03T04:22:47;11.83;;;8.90;;
3447;SDS011;1738;49.500;17.736;2023-04-03T04:25:12;10.70;;;4.67;;
3447;SDS011;1738;49.500;17.736;2023-04-03T04:27:38;13.07;;;5.50;;
3447;SDS011;1738;49.500;17.736;2023-04-03T04:30:04;11.10;;;4.40;;
3447;SDS011;1738;49.500;17.736;2023-04-03T04:32:30;8.73;;;6.07;;
3447;SDS011;1738;49.500;17.736;2023-04-03T04:34:56;13.50;;;6.00;;
3447;SDS011;1738;49.500;17.736;2023-04-03T04:37:22;11.83;;;6.77;;
3447;SDS011;1738;49.500;17.736;2023-04-03T04:39:48;7.33;;;4.70;;
3447;SDS011;1738;49.500;17.736;2023-04-03T04:42:14;13.43;;;6.27;;
3447;SDS011;1738;49.500;17.736;2023-04-03T04:44:40;8.20;;;5.20;;
3447;SDS011;1738;49.500;17.736;2023-04-03T04:47:05;8.10;;;4.73;;
3447;SDS011;1738;49.500;17.736;2023-04-03T04:49:31;9.13;;;6.27;;
3447;SDS011;1738;49.500;17.736;2023-04-03T04:51:57;8.77;;;5.80;;
3447;SDS011;1738;49.500;17.736;2023-04-03T04:54:23;10.90;;;5.97;;
3447;SDS011;1738;49.500;17.736;2023-04-03T04:56:49;9.27;;;5.63;;
3447;SDS011;1738;49.500;17.736;2023-04-03T04:59:15;17.30;;;7.07;;
3447;SDS011;1738;49.500;17.736;2023-04-03T05:01:41;5.80;;;5.10;;
3447;SDS011;1738;49.500;17.736;2023-04-03T05:04:06;11.27;;;6.30;;
3447;SDS011;1738;49.500;17.736;2023-04-03T05:06:32;7.00;;;4.00;;
3447;SDS011;1738;49.500;17.736;2023-04-03T05:08:58;8.70;;;6.40;;
3447;SDS011;1738;49.500;17.736;2023-04-03T05:11:24;6.20;;;4.30;;
3447;SDS011;1738;49.500;17.736;2023-04-03T05:13:50;10.40;;;5.97;;
3447;SDS011;1738;49.500;17.736;2023-04-03T05:16:16;9.13;;;6.60;;
3447;SDS011;1738;49.500;17.736;2023-04-03T05:18:42;9.73;;;4.70;;
3447;SDS011;1738;49.500;17.736;2023-04-03T05:21:07;8.20;;;6.20;;
3447;SDS011;1738;49.500;17.736;2023-04-03T05:23:33;11.53;;;7.63;;
3447;SDS011;1738;49.500;17.736;2023-04-03T05:25:59;13.23;;;7.37;;
3447;SDS011;1738;49.500;17.736;2023-04-03T05:28:25;9.60;;;5.90;;
3447;SDS011;1738;49.500;17.736;2023-04-03T05:30:54;13.23;;;7.70;;
3447;SDS011;1738;49.500;17.736;2023-04-03T05:33:19;11.43;;;6.13;;
3447;SDS011;1738;49.500;17.736;2023-04-03T05:35:45;13.27;;;7.23;;
3447;SDS011;1738;49.500;17.736;2023-04-03T05:38:11;8.13;;;6.03;;
3447;SDS011;1738;49.500;17.736;2023-04-03T05:40:37;7.70;;;5.47;;
3447;SDS011;1738;49.500;17.736;2023-04-03T05:43:03;7.23;;;4.43;;
3447;SDS011;1738;49.500;17.736;2023-04-03T05:45:29;9.40;;;5.90;;
3447;SDS011;1738;49.500;17.736;2023-04-03T05:47:54;10.93;;;6.67;;
3447;SDS011;1738;49.500;17.736;2023-04-03T05:50:20;8.73;;;7.07;;
3447;SDS011;1738;49.500;17.736;2023-04-03T05:52:46;8.30;;;4.67;;
3447;SDS011;1738;49.500;17.736;2023-04-03T05:55:12;12.83;;;8.27;;
3447;SDS011;1738;49.500;17.736;2023-04-03T05:57:38;12.93;;;6.97;;
3447;SDS011;1738;49.500;17.736;2023-04-03T06:00:04;9.90;;;5.20;;
3447;SDS011;1738;49.500;17.736;2023-04-03T06:02:30;9.77;;;5.63;;
3447;SDS011;1738;49.500;17.736;2023-04-03T06:04:56;7.37;;;5.60;;
3447;SDS011;1738;49.500;17.736;2023-04-03T06:07:23;12.83;;;8.80;;
3447;SDS011;1738;49.500;17.736;2023-04-03T06:09:48;10.33;;;6.10;;
3447;SDS011;1738;49.500;17.736;2023-04-03T06:12:13;14.80;;;8.73;;
3447;SDS011;1738;49.500;17.736;2023-04-03T06:14:39;9.53;;;4.83;;
3447;SDS011;1738;49.500;17.736;2023-04-03T06:17:05;12.80;;;8.93;;
3447;SDS011;1738;49.500;17.736;2023-04-03T06:19:31;8.57;;;6.60;;
3447;SDS011;1738;49.500;17.736;2023-04-03T06:21:57;10.63;;;7.17;;
3447;SDS011;1738;49.500;17.736;2023-04-03T06:24:23;19.00;;;11.50;;
3447;SDS011;1738;49.500;17.736;2023-04-03T06:26:49;17.00;;;11.47;;
3447;SDS011;1738;49.500;17.736;2023-04-03T06:29:14;17.30;;;6.60;;
3447;SDS011;1738;49.500;17.736;2023-04-03T06:31:40;11.27;;;9.03;;
3447;SDS011;1738;49.500;17.736;2023-04-03T06:34:06;7.50;;;4.97;;
3447;SDS011;1738;49.500;17.736;2023-04-03T06:36:32;11.60;;;5.57;;
3447;SDS011;1738;49.500;17.736;2023-04-03T06:38:58;8.73;;;6.40;;
3447;SDS011;1738;49.500;17.736;2023-04-03T06:41:24;14.43;;;7.00;;
3447;SDS011;1738;49.500;17.736;2023-04-03T06:43:49;8.47;;;5.83;;
3447;SDS011;1738;49.500;17.736;2023-04-03T06:46:16;10.10;;;7.10;;
3447;SDS011;1738;49.500;17.736;2023-04-03T06:48:41;10.30;;;6.50;;
3447;SDS011;1738;49.500;17.736;2023-04-03T06:51:11;9.37;;;6.27;;
3447;SDS011;1738;49.500;17.736;2023-04-03T06:53:33;14.50;;;9.10;;
3447;SDS011;1738;49.500;17.736;2023-04-03T06:55:59;13.27;;;8.03;;
3447;SDS011;1738;49.500;17.736;2023-04-03T06:58:25;15.20;;;7.53;;
3447;SDS011;1738;49.500;17.736;2023-04-03T07:00:50;17.87;;;6.30;;
3447;SDS011;1738;49.500;17.736;2023-04-03T07:03:16;10.73;;;8.53;;
3447;SDS011;1738;49.500;17.736;2023-04-03T07:05:42;9.33;;;6.43;;
3447;SDS011;1738;49.500;17.736;2023-04-03T07:08:08;16.60;;;7.77;;
3447;SDS011;1738;49.500;17.736;2023-04-03T07:10:34;8.40;;;6.00;;
3447;SDS011;1738;49.500;17.736;2023-04-03T07:13:00;10.63;;;7.77;;
3447;SDS011;1738;49.500;17.736;2023-04-03T07:15:26;12.83;;;9.40;;
3447;SDS011;1738;49.500;17.736;2023-04-03T07:17:51;9.53;;;8.30;;
3447;SDS011;1738;49.500;17.736;2023-04-03T07:20:17;7.07;;;5.37;;
3447;SDS011;1738;49.500;17.736;2023-04-03T07:22:43;18.03;;;5.93;;
3447;SDS011;1738;49.500;17.736;2023-04-03T07:25:09;8.90;;;5.60;;
3447;SDS011;1738;49.500;17.736;2023-04-03T07:27:35;8.43;;;7.53;;
3447;SDS011;1738;49.500;17.736;2023-04-03T07:30:01;11.90;;;8.37;;
3447;SDS011;1738;49.500;17.736;2023-04-03T07:32:27;12.97;;;8.20;;
3447;SDS011;1738;49.500;17.736;2023-04-03T07:34:53;6.93;;;5.90;;
3447;SDS011;1738;49.500;17.736;2023-04-03T07:37:22;10.40;;;7.27;;
3447;SDS011;1738;49.500;17.736;2023-04-03T07:39:48;5.80;;;4.80;;
3447;SDS011;1738;49.500;17.736;2023-04-03T07:42:14;6.77;;;5.10;;
3447;SDS011;1738;49.500;17.736;2023-04-03T07:44:40;9.40;;;5.90;;
3447;SDS011;1738;49.500;17.736;2023-04-03T07:47:06;11.70;;;6.73;;
3447;SDS011;1738;49.500;17.736;2023-04-03T07:49:32;14.67;;;7.23;;
3447;SDS011;1738;49.500;17.736;2023-04-03T07:51:58;8.80;;;6.40;;
3447;SDS011;1738;49.500;17.736;2023-04-03T07:54:24;12.77;;;8.10;;
3447;SDS011;1738;49.500;17.736;2023-04-03T07:56:49;14.30;;;7.80;;
3447;SDS011;1738;49.500;17.736;2023-04-03T07:59:15;9.17;;;6.30;;
3447;SDS011;1738;49.500;17.736;2023-04-03T08:01:41;8.23;;;6.10;;
3447;SDS011;1738;49.500;17.736;2023-04-03T08:04:07;12.13;;;7.10;;
3447;SDS011;1738;49.500;17.736;2023-04-03T08:06:33;10.03;;;7.90;;
3447;SDS011;1738;49.500;17.736;2023-04-03T08:08:59;9.87;;;7.50;;
3447;SDS011;1738;49.500;17.736;2023-04-03T08:11:25;10.87;;;8.30;;
3447;SDS011;1738;49.500;17.736;2023-04-03T08:13:50;11.50;;;8.60;;
3447;SDS011;1738;49.500;17.736;2023-04-03T08:16:17;5.60;;;4.67;;
3447;SDS011;1738;49.500;17.736;2023-04-03T08:18:42;10.63;;;6.10;;
3447;SDS011;1738;49.500;17.736;2023-04-03T08:21:09;8.43;;;6.57;;
3447;SDS011;1738;49.500;17.736;2023-04-03T08:23:34;8.90;;;6.50;;
3447;SDS011;1738;49.500;17.736;2023-04-03T08:26:05;5.70;;;4.20;;
3447;SDS011;1738;49.500;17.736;2023-04-03T08:28:26;8.97;;;5.20;;
3447;SDS011;1738;49.500;17.736;2023-04-03T08:30:51;8.67;;;6.13;;
3447;SDS011;1738;49.500;17.736;2023-04-03T08:33:17;9.60;;;6.50;;
3447;SDS011;1738;49.500;17.736;2023-04-03T08:35:43;7.20;;;4.90;;
3447;SDS011;1738;49.500;17.736;2023-04-03T08:38:09;12.80;;;8.50;;
3447;SDS011;1738;49.500;17.736;2023-04-03T08:40:35;9.47;;;6.67;;
3447;SDS011;1738;49.500;17.736;2023-04-03T08:43:23;9.27;;;6.80;;
3447;SDS011;1738;49.500;17.736;2023-04-03T08:45:47;11.43;;;7.40;;
3447;SDS011;1738;49.500;17.736;2023-04-03T08:48:15;7.40;;;6.20;;
3447;SDS011;1738;49.500;17.736;2023-04-03T08:50:41;11.20;;;9.10;;
3447;SDS011;1738;49.500;17.736;2023-04-03T08:53:06;11.60;;;7.20;;
3447;SDS011;1738;49.500;17.736;2023-04-03T08:55:33;7.00;;;5.10;;
3447;SDS011;1738;49.500;17.736;2023-04-03T08:58:00;10.93;;;7.80;;
3447;SDS011;1738;49.500;17.736;2023-04-03T09:00:24;12.00;;;8.60;;
3447;SDS011;1738;49.500;17.736;2023-04-03T09:02:51;11.83;;;8.10;;
3447;SDS011;1738;49.500;17.736;2023-04-03T09:05:18;8.77;;;6.40;;
3447;SDS011;1738;49.500;17.736;2023-04-03T09:07:44;8.17;;;5.30;;
3447;SDS011;1738;49.500;17.736;2023-04-03T09:10:10;8.37;;;6.10;;
3447;SDS011;1738;49.500;17.736;2023-04-03T09:12:37;9.47;;;5.67;;
3447;SDS011;1738;49.500;17.736;2023-04-03T09:15:02;15.30;;;7.27;;
3447;SDS011;1738;49.500;17.736;2023-04-03T09:17:35;5.00;;;4.00;;
3447;SDS011;1738;49.500;17.736;2023-04-03T09:20:07;6.10;;;4.67;;
3447;SDS011;1738;49.500;17.736;2023-04-03T09:22:31;7.37;;;5.13;;
3447;SDS011;1738;49.500;17.736;2023-04-03T09:24:57;5.50;;;4.80;;
3447;SDS011;1738;49.500;17.736;2023-04-03T09:27:21;7.90;;;5.10;;
3447;SDS011;1738;49.500;17.736;2023-04-03T09:29:47;4.20;;;2.20;;
3447;SDS011;1738;49.500;17.736;2023-04-03T09:32:21;5.97;;;4.03;;
3447;SDS011;1738;49.500;17.736;2023-04-03T09:34:44;13.63;;;4.07;;
3447;SDS011;1738;49.500;17.736;2023-04-03T09:37:10;8.87;;;4.60;;
3447;SDS011;1738;49.500;17.736;2023-04-03T09:42:24;8.00;;;4.80;;
3447;SDS011;1738;49.500;17.736;2023-04-03T09:44:53;5.10;;;3.30;;
3447;SDS011;1738;49.500;17.736;2023-04-03T09:47:22;6.40;;;4.20;;
3447;SDS011;1738;49.500;17.736;2023-04-03T09:49:45;5.50;;;3.37;;
3447;SDS011;1738;49.500;17.736;2023-04-03T09:54:42;6.23;;;4.23;;
3447;SDS011;1738;49.500;17.736;2023-04-03T09:57:10;10.33;;;5.77;;
3447;SDS011;1738;49.500;17.736;2023-04-03T09:59:34;37.57;;;19.37;;
3447;SDS011;1738;49.500;17.736;2023-04-03T10:02:03;7.03;;;4.00;;
3447;SDS011;1738;49.500;17.736;2023-04-03T10:04:43;5.73;;;2.70;;
3447;SDS011;1738;49.500;17.736;2023-04-03T10:09:40;6.00;;;3.87;;
3447;SDS011;1738;49.500;17.736;2023-04-03T10:12:09;4.17;;;2.57;;
3447;SDS011;1738;49.500;17.736;2023-04-03T10:14:36;7.63;;;3.10;;
3447;SDS011;1738;49.500;17.736;2023-04-03T10:17:09;5.07;;;2.93;;
3447;SDS011;1738;49.500;17.736;2023-04-03T10:19:34;5.87;;;3.10;;
3447;SDS011;1738;49.500;17.736;2023-04-03T10:21:59;3.40;;;2.10;;
3447;SDS011;1738;49.500;17.736;2023-04-03T10:24:25;5.20;;;3.70;;
3447;SDS011;1738;49.500;17.736;2023-04-03T10:26:57;4.50;;;2.80;;
3447;SDS011;1738;49.500;17.736;2023-04-03T10:29:27;3.40;;;2.53;;
3447;SDS011;1738;49.500;17.736;2023-04-03T10:34:24;4.77;;;3.27;;
3447;SDS011;1738;49.500;17.736;2023-04-03T10:36:59;6.53;;;2.80;;
3447;SDS011;1738;49.500;17.736;2023-04-03T10:42:13;2.37;;;1.50;;
3447;SDS011;1738;49.500;17.736;2023-04-03T10:44:40;3.53;;;2.40;;
3447;SDS011;1738;49.500;17.736;2023-04-03T10:47:05;6.10;;;3.30;;
3447;SDS011;1738;49.500;17.736;2023-04-03T10:49:40;15.50;;;5.00;;
3447;SDS011;1738;49.500;17.736;2023-04-03T10:52:11;4.83;;;3.00;;
3447;SDS011;1738;49.500;17.736;2023-04-03T10:54:36;5.80;;;2.43;;
3447;SDS011;1738;49.500;17.736;2023-04-03T10:57:01;9.53;;;3.10;;
3447;SDS011;1738;49.500;17.736;2023-04-03T10:59:43;4.33;;;1.93;;
3447;SDS011;1738;49.500;17.736;2023-04-03T11:02:16;6.17;;;2.83;;
3447;SDS011;1738;49.500;17.736;2023-04-03T11:04:42;3.20;;;2.33;;
3447;SDS011;1738;49.500;17.736;2023-04-03T11:07:10;3.90;;;2.63;;
3447;SDS011;1738;49.500;17.736;2023-04-03T11:09:35;4.43;;;3.13;;
3447;SDS011;1738;49.500;17.736;2023-04-03T11:14:41;2.70;;;1.70;;
3447;SDS011;1738;49.500;17.736;2023-04-03T11:17:15;7.47;;;2.63;;
3447;SDS011;1738;49.500;17.736;2023-04-03T11:19:45;3.10;;;2.00;;
3447;SDS011;1738;49.500;17.736;2023-04-03T11:22:11;2.80;;;1.83;;
3447;SDS011;1738;49.500;17.736;2023-04-03T11:24:36;3.83;;;2.17;;
3447;SDS011;1738;49.500;17.736;2023-04-03T11:27:01;5.10;;;1.70;;
3447;SDS011;1738;49.500;17.736;2023-04-03T11:29:29;3.47;;;2.00;;
3447;SDS011;1738;49.500;17.736;2023-04-03T11:32:21;6.07;;;3.07;;
3447;SDS011;1738;49.500;17.736;2023-04-03T11:34:40;7.53;;;2.43;;
3447;SDS011;1738;49.500;17.736;2023-04-03T11:37:11;4.43;;;2.00;;
3447;SDS011;1738;49.500;17.736;2023-04-03T11:39:32;6.17;;;2.80;;
3447;SDS011;1738;49.500;17.736;2023-04-03T11:44:34;5.00;;;2.03;;
3447;SDS011;1738;49.500;17.736;2023-04-03T11:47:00;2.73;;;1.43;;
3447;SDS011;1738;49.500;17.736;2023-04-03T11:51:57;4.83;;;2.10;;
3447;SDS011;1738;49.500;17.736;2023-04-03T11:56:54;5.13;;;2.03;;
3447;SDS011;1738;49.500;17.736;2023-04-03T11:59:21;4.10;;;2.13;;
3447;SDS011;1738;49.500;17.736;2023-04-03T12:01:48;3.07;;;1.53;;
3447;SDS011;1738;49.500;17.736;2023-04-03T12:04:14;7.23;;;3.07;;
3447;SDS011;1738;49.500;17.736;2023-04-03T12:06:49;4.93;;;2.70;;
3447;SDS011;1738;49.500;17.736;2023-04-03T12:11:51;4.22;;;2.72;;
3447;SDS011;1738;49.500;17.736;2023-04-03T12:14:17;2.77;;;1.87;;
3447;SDS011;1738;49.500;17.736;2023-04-03T12:16:44;6.00;;;2.40;;
3447;SDS011;1738;49.500;17.736;2023-04-03T12:22:10;4.93;;;2.63;;
3447;SDS011;1738;49.500;17.736;2023-04-03T12:24:36;5.87;;;2.57;;
3447;SDS011;1738;49.500;17.736;2023-04-03T12:27:05;4.80;;;2.57;;
3447;SDS011;1738;49.500;17.736;2023-04-03T12:29:37;3.90;;;2.07;;
3447;SDS011;1738;49.500;17.736;2023-04-03T12:32:09;5.80;;;2.63;;
3447;SDS011;1738;49.500;17.736;2023-04-03T12:34:38;7.13;;;2.90;;
3447;SDS011;1738;49.500;17.736;2023-04-03T12:37:07;2.77;;;1.80;;
3447;SDS011;1738;49.500;17.736;2023-04-03T12:39:36;4.17;;;1.97;;
3447;SDS011;1738;49.500;17.736;2023-04-03T12:42:06;4.20;;;2.43;;
3447;SDS011;1738;49.500;17.736;2023-04-03T12:44:35;4.33;;;2.40;;
3447;SDS011;1738;49.500;17.736;2023-04-03T12:46:58;5.03;;;2.47;;
3447;SDS011;1738;49.500;17.736;2023-04-03T12:49:33;4.57;;;2.70;;
3447;SDS011;1738;49.500;17.736;2023-04-03T12:51:55;5.27;;;3.40;;
3447;SDS011;1738;49.500;17.736;2023-04-03T12:54:23;5.83;;;3.10;;
3447;SDS011;1738;49.500;17.736;2023-04-03T12:56:48;7.27;;;3.57;;
3447;SDS011;1738;49.500;17.736;2023-04-03T12:59:21;3.57;;;2.80;;
3447;SDS011;1738;49.500;17.736;2023-04-03T13:01:53;5.47;;;4.10;;
3447;SDS011;1738;49.500;17.736;2023-04-03T13:04:19;10.10;;;7.10;;
3447;SDS011;1738;49.500;17.736;2023-04-03T13:06:45;3.13;;;2.13;;
3447;SDS011;1738;49.500;17.736;2023-04-03T13:09:19;5.00;;;3.33;;
3447;SDS011;1738;49.500;17.736;2023-04-03T13:11:43;6.27;;;4.20;;
3447;SDS011;1738;49.500;17.736;2023-04-03T13:14:17;6.33;;;2.87;;
3447;SDS011;1738;49.500;17.736;2023-04-03T13:16:42;4.00;;;2.10;;
3447;SDS011;1738;49.500;17.736;2023-04-03T13:19:15;7.07;;;2.87;;
3447;SDS011;1738;49.500;17.736;2023-04-03T13:21:34;7.10;;;2.80;;
3447;SDS011;1738;49.500;17.736;2023-04-03T13:24:00;4.43;;;1.87;;
3447;SDS011;1738;49.500;17.736;2023-04-03T13:26:28;7.10;;;3.10;;
3447;SDS011;1738;49.500;17.736;2023-04-03T13:28:51;4.83;;;2.80;;
3447;SDS011;1738;49.500;17.736;2023-04-03T13:31:22;6.50;;;2.80;;
3447;SDS011;1738;49.500;17.736;2023-04-03T13:33:53;5.33;;;2.80;;
3447;SDS011;1738;49.500;17.736;2023-04-03T13:36:18;11.43;;;6.07;;
3447;SDS011;1738;49.500;17.736;2023-04-03T13:38:43;7.00;;;4.90;;
3447;SDS011;1738;49.500;17.736;2023-04-03T13:43:41;3.73;;;2.63;;
3447;SDS011;1738;49.500;17.736;2023-04-03T13:46:25;6.20;;;2.30;;
3447;SDS011;1738;49.500;17.736;2023-04-03T13:48:51;2.70;;;1.63;;
3447;SDS011;1738;49.500;17.736;2023-04-03T13:51:18;7.63;;;2.87;;
3447;SDS011;1738;49.500;17.736;2023-04-03T13:53:46;14.73;;;2.90;;
3447;SDS011;1738;49.500;17.736;2023-04-03T13:56:18;5.33;;;2.80;;
3447;SDS011;1738;49.500;17.736;2023-04-03T13:58:52;9.60;;;5.27;;
3447;SDS011;1738;49.500;17.736;2023-04-03T14:01:10;4.90;;;2.53;;
3447;SDS011;1738;49.500;17.736;2023-04-03T14:03:39;4.70;;;2.43;;
3447;SDS011;1738;49.500;17.736;2023-04-03T14:06:04;4.73;;;2.80;;
3447;SDS011;1738;49.500;17.736;2023-04-03T14:08:29;5.50;;;2.67;;
3447;SDS011;1738;49.500;17.736;2023-04-03T14:10:55;5.93;;;3.30;;
3447;SDS011;1738;49.500;17.736;2023-04-03T14:13:21;4.60;;;2.30;;
3447;SDS011;1738;49.500;17.736;2023-04-03T14:15:47;3.97;;;2.10;;
3447;SDS011;1738;49.500;17.736;2023-04-03T14:18:13;3.90;;;2.57;;
3447;SDS011;1738;49.500;17.736;2023-04-03T14:20:39;3.57;;;2.50;;
3447;SDS011;1738;49.500;17.736;2023-04-03T14:23:05;4.40;;;3.10;;
3447;SDS011;1738;49.500;17.736;2023-04-03T14:25:30;6.83;;;2.90;;
3447;SDS011;1738;49.500;17.736;2023-04-03T14:27:56;5.57;;;3.10;;
3447;SDS011;1738;49.500;17.736;2023-04-03T14:30:25;6.23;;;2.23;;
3447;SDS011;1738;49.500;17.736;2023-04-03T14:32:49;5.70;;;2.20;;
3447;SDS011;1738;49.500;17.736;2023-04-03T14:35:15;5.47;;;3.67;;
3447;SDS011;1738;49.500;17.736;2023-04-03T14:37:41;4.17;;;2.00;;
3447;SDS011;1738;49.500;17.736;2023-04-03T14:40:07;5.50;;;2.67;;
3447;SDS011;1738;49.500;17.736;2023-04-03T14:42:34;4.80;;;2.77;;
3447;SDS011;1738;49.500;17.736;2023-04-03T14:44:59;8.23;;;3.87;;
3447;SDS011;1738;49.500;17.736;2023-04-03T14:47:25;7.80;;;3.33;;
3447;SDS011;1738;49.500;17.736;2023-04-03T14:49:51;9.67;;;5.77;;
3447;SDS011;1738;49.500;17.736;2023-04-03T14:52:20;12.53;;;4.73;;
3447;SDS011;1738;49.500;17.736;2023-04-03T14:54:44;6.80;;;3.57;;
3447;SDS011;1738;49.500;17.736;2023-04-03T14:57:10;4.97;;;2.17;;
3447;SDS011;1738;49.500;17.736;2023-04-03T14:59:36;6.90;;;3.47;;
3447;SDS011;1738;49.500;17.736;2023-04-03T15:02:02;9.00;;;5.10;;
3447;SDS011;1738;49.500;17.736;2023-04-03T15:04:27;7.03;;;2.90;;
3447;SDS011;1738;49.500;17.736;2023-04-03T15:06:53;8.10;;;3.80;;
3447;SDS011;1738;49.500;17.736;2023-04-03T15:09:22;5.20;;;3.60;;
3447;SDS011;1738;49.500;17.736;2023-04-03T15:11:46;5.87;;;2.20;;
3447;SDS011;1738;49.500;17.736;2023-04-03T15:14:12;6.13;;;3.03;;
3447;SDS011;1738;49.500;17.736;2023-04-03T15:16:38;6.37;;;3.57;;
3447;SDS011;1738;49.500;17.736;2023-04-03T15:19:03;9.50;;;2.53;;
3447;SDS011;1738;49.500;17.736;2023-04-03T15:21:29;7.97;;;4.23;;
3447;SDS011;1738;49.500;17.736;2023-04-03T15:23:55;10.98;;;5.68;;
3447;SDS011;1738;49.500;17.736;2023-04-03T15:26:21;39.37;;;18.50;;